Time;durP1;ratioP1;P1;durP2;ratioP2;P2;SDS_P1;SDS_P2;PMS_P1;PMS_P2;Temp;Humidity;BMP_temperature;BMP_pressure;BME280_temperature;BME280_humidity;BME280_pressure;Samples;Min_cycle;Max_cycle;Signal;HPM_P1;HPM_P2
2024/04/02 05:05:39;;;;;;;0.30;0.30;;;8.40;99.90;;;;;;5905633;23;20197;-61
2024/04/02 05:08:16;;;;;;;0.30;0.30;;;8.40;99.90;;;;;;4899162;29;20186;-59
2024/04/02 05:10:42;;;;;;;0.40;0.40;;;8.40;99.90;;;;;;4899721;29;20537;-60
2024/04/02 05:13:08;;;;;;;0.30;0.30;;;8.50;99.90;;;;;;4899739;29;20178;-59
2024/04/02 05:15:34;;;;;;;0.30;0.30;;;8.50;99.90;;;;;;4899160;29;20306;-60
2024/04/02 05:18:00;;;;;;;0.30;0.30;;;8.50;99.90;;;;;;4899588;29;20210;-61
2024/04/02 05:20:25;;;;;;;0.30;0.30;;;8.50;99.90;;;;;;4899774;29;20261;-59
2024/04/02 05:22:52;;;;;;;0.30;0.30;;;8.50;99.90;;;;;;4899554;29;20187;-60
2024/04/02 05:25:17;;;;;;;0.40;0.40;;;8.50;99.90;;;;;;4899131;29;20190;-60
2024/04/02 05:27:43;;;;;;;0.30;0.30;;;8.60;99.90;;;;;;4899094;29;20186;-60
2024/04/02 05:30:09;;;;;;;0.30;0.30;;;8.60;99.90;;;;;;4893730;29;20657;-60
2024/04/02 05:32:35;;;;;;;0.40;0.40;;;8.80;99.90;;;;;;4898791;29;20530;-62
2024/04/02 05:35:02;;;;;;;0.30;0.30;;;8.80;99.90;;;;;;4899145;29;20433;-60
2024/04/02 05:37:28;;;;;;;0.40;0.40;;;8.90;99.90;;;;;;4898543;29;20219;-60
2024/04/02 05:39:53;;;;;;;0.30;0.30;;;8.80;99.90;;;;;;4899235;29;20593;-60
2024/04/02 05:42:19;;;;;;;0.33;0.33;;;8.80;99.90;;;;;;4899302;29;20179;-62
2024/04/02 05:44:45;;;;;;;0.30;0.30;;;8.80;99.90;;;;;;4888495;29;20610;-62
2024/04/02 05:47:10;;;;;;;0.30;0.30;;;8.90;99.90;;;;;;4880293;29;20191;-61
2024/04/02 05:49:36;;;;;;;0.30;0.30;;;8.90;99.90;;;;;;4880302;29;20638;-61
2024/04/02 05:52:02;;;;;;;0.30;0.30;;;8.90;99.90;;;;;;4880316;29;20176;-61
2024/04/02 05:54:27;;;;;;;0.40;0.40;;;9.10;99.90;;;;;;4880283;29;20232;-61
2024/04/02 05:56:53;;;;;;;0.30;0.30;;;9.40;99.90;;;;;;4879971;29;20507;-61
2024/04/02 05:59:19;;;;;;;0.30;0.30;;;9.60;99.90;;;;;;4892267;29;20187;-61
2024/04/02 06:01:44;;;;;;;0.30;0.30;;;9.70;99.90;;;;;;4898509;29;20189;-61
2024/04/02 06:04:10;;;;;;;0.40;0.40;;;9.90;99.90;;;;;;4898947;29;20208;-60
2024/04/02 06:06:35;;;;;;;0.40;0.40;;;10.00;99.90;;;;;;4898353;29;20215;-60
2024/04/02 06:09:01;;;;;;;0.30;0.30;;;10.30;99.90;;;;;;4898742;29;20213;-61
2024/04/02 06:11:26;;;;;;;0.30;0.30;;;10.70;99.90;;;;;;4898629;29;20176;-61
2024/04/02 06:13:52;;;;;;;0.50;0.50;;;11.20;99.90;;;;;;4887384;29;20188;-61
2024/04/02 06:16:17;;;;;;;0.30;0.30;;;11.60;99.90;;;;;;4879559;29;20209;-61
2024/04/02 06:18:43;;;;;;;0.30;0.30;;;12.00;99.90;;;;;;4879530;29;20198;-62
2024/04/02 06:21:09;;;;;;;0.37;0.37;;;12.40;99.90;;;;;;4879452;29;20258;-61
2024/04/02 06:23:34;;;;;;;0.30;0.30;;;12.80;99.90;;;;;;4879268;29;20630;-61
2024/04/02 06:26:00;;;;;;;0.30;0.30;;;13.00;99.90;;;;;;4878869;29;20210;-62
2024/04/02 06:28:26;;;;;;;0.30;0.30;;;13.20;99.90;;;;;;4879561;29;20288;-60
2024/04/02 06:30:51;;;;;;;0.40;0.40;;;13.20;99.90;;;;;;4886858;29;20186;-60
2024/04/02 06:33:17;;;;;;;0.30;0.30;;;13.10;99.90;;;;;;4917176;29;20202;-60
2024/04/02 06:35:43;;;;;;;0.30;0.30;;;12.90;99.90;;;;;;4916711;29;20210;-60
2024/04/02 06:38:08;;;;;;;0.30;0.27;;;12.70;99.90;;;;;;4916991;29;20468;-60
2024/04/02 06:40:34;;;;;;;0.30;0.30;;;12.50;99.90;;;;;;4916169;29;20178;-60
2024/04/02 06:42:59;;;;;;;0.30;0.30;;;12.30;99.90;;;;;;4904006;29;20186;-59
2024/04/02 06:45:27;;;;;;;0.30;0.30;;;12.10;99.90;;;;;;4897308;29;20538;-59
2024/04/02 06:47:53;;;;;;;0.30;0.30;;;11.80;99.90;;;;;;4898061;29;20522;-59
2024/04/02 06:50:18;;;;;;;0.40;0.40;;;11.50;99.90;;;;;;4897891;29;20396;-60
2024/04/02 06:52:44;;;;;;;1.07;0.97;;;11.30;99.90;;;;;;4898024;29;20177;-60
2024/04/02 06:55:09;;;;;;;0.30;0.30;;;11.10;99.90;;;;;;4897577;29;20245;-59
2024/04/02 06:57:35;;;;;;;0.30;0.30;;;10.90;99.90;;;;;;4883365;29;20293;-60
2024/04/02 07:00:01;;;;;;;0.30;0.30;;;10.90;99.90;;;;;;4879105;29;20315;-60
2024/04/02 07:02:27;;;;;;;0.33;0.33;;;10.90;99.90;;;;;;4879104;29;20195;-60
2024/04/02 07:04:53;;;;;;;0.30;0.30;;;10.90;99.90;;;;;;4879081;29;20477;-59
2024/04/02 07:07:18;;;;;;;0.30;0.30;;;10.90;99.90;;;;;;4877933;29;20218;-60
2024/04/02 07:09:44;;;;;;;0.30;0.30;;;10.90;99.90;;;;;;4879170;29;20175;-60
2024/04/02 07:12:10;;;;;;;0.30;0.30;;;10.90;99.90;;;;;;4891497;29;20556;-59
2024/04/02 07:14:36;;;;;;;0.30;0.30;;;11.00;99.90;;;;;;4897214;29;20559;-61
2024/04/02 07:17:02;;;;;;;0.30;0.30;;;11.10;99.90;;;;;;4897508;29;20439;-60
2024/04/02 07:19:28;;;;;;;0.30;0.30;;;11.30;99.90;;;;;;4896174;29;20509;-60
2024/04/02 07:21:54;;;;;;;0.30;0.30;;;11.50;99.90;;;;;;4897775;29;20410;-60
2024/04/02 07:24:19;;;;;;;0.30;0.30;;;11.80;99.90;;;;;;4897822;29;20174;-60
2024/04/02 07:26:45;;;;;;;0.30;0.30;;;12.00;99.90;;;;;;4897151;29;20285;-60
2024/04/02 07:29:10;;;;;;;0.30;0.30;;;12.20;99.90;;;;;;4897604;29;20648;-60
2024/04/02 07:31:36;;;;;;;0.30;0.30;;;12.60;99.90;;;;;;4897721;29;20286;-60
2024/04/02 07:34:03;;;;;;;0.30;0.30;;;13.30;99.90;;;;;;4883250;29;20229;-60
2024/04/02 07:36:28;;;;;;;0.50;0.50;;;13.90;99.90;;;;;;4877989;29;20704;-60
2024/04/02 07:38:54;;;;;;;0.30;0.30;;;14.50;99.90;;;;;;4878756;29;20403;-60
2024/04/02 07:41:19;;;;;;;0.30;0.30;;;15.00;99.90;;;;;;4879004;29;20600;-60
2024/04/02 07:43:45;;;;;;;0.30;0.30;;;15.50;99.90;;;;;;4878853;29;20202;-60
2024/04/02 07:46:10;;;;;;;0.30;0.30;;;16.10;99.90;;;;;;4878316;29;20555;-60
2024/04/02 07:48:36;;;;;;;0.30;0.30;;;16.70;99.10;;;;;;4891221;29;20190;-60
2024/04/02 07:51:09;;;;;;;0.30;0.30;;;17.10;98.10;;;;;;4897929;29;20578;-59
2024/04/02 07:53:34;;;;;;;0.30;0.30;;;17.60;96.70;;;;;;4901084;29;20194;-61
2024/04/02 07:56:00;;;;;;;0.30;0.30;;;18.40;95.60;;;;;;4900497;29;20517;-60
2024/04/02 07:58:26;;;;;;;0.30;0.30;;;18.90;94.60;;;;;;4900821;29;20233;-61
2024/04/02 08:00:51;;;;;;;0.30;0.30;;;19.20;93.30;;;;;;4900678;29;20179;-61
2024/04/02 08:03:17;;;;;;;0.40;0.30;;;19.20;92.40;;;;;;4885560;29;20187;-61
2024/04/02 08:05:43;;;;;;;0.30;0.30;;;19.10;92.10;;;;;;4882204;29;20203;-61
2024/04/02 08:08:08;;;;;;;0.30;0.30;;;18.60;91.70;;;;;;4882139;29;20194;-61
2024/04/02 08:10:34;;;;;;;0.40;0.40;;;17.80;92.10;;;;;;4882153;29;20697;-61
2024/04/02 08:12:59;;;;;;;0.30;0.30;;;17.30;92.80;;;;;;4882021;29;20169;-62
2024/04/02 08:15:25;;;;;;;0.30;0.30;;;16.90;93.20;;;;;;4881418;29;20173;-63
2024/04/02 08:17:51;;;;;;;0.30;0.30;;;16.70;94.30;;;;;;4895402;29;20242;-62
2024/04/02 08:20:16;;;;;;;0.30;0.30;;;16.80;94.50;;;;;;4900313;29;20284;-62
2024/04/02 08:22:42;;;;;;;0.30;0.30;;;16.80;94.30;;;;;;4900646;29;20752;-62
2024/04/02 08:25:09;;;;;;;0.30;0.20;;;16.50;94.20;;;;;;4900140;29;20184;-62
2024/04/02 08:27:34;;;;;;;0.30;0.30;;;16.10;94.20;;;;;;4900178;29;20230;-62
2024/04/02 08:30:00;;;;;;;0.30;0.30;;;15.80;94.40;;;;;;4900187;29;20393;-62
2024/04/02 08:32:25;;;;;;;0.40;0.40;;;15.40;95.80;;;;;;4883937;29;20184;-61
2024/04/02 08:34:51;;;;;;;0.30;0.30;;;15.20;96.10;;;;;;4881178;29;20271;-62
2024/04/02 08:37:17;;;;;;;0.30;0.30;;;15.30;95.90;;;;;;4881372;29;20210;-62
2024/04/02 08:39:42;;;;;;;0.30;0.30;;;15.70;95.60;;;;;;4881551;29;20512;-61
2024/04/02 08:42:08;;;;;;;0.30;0.20;;;16.40;95.50;;;;;;4881437;29;20181;-62
2024/04/02 08:44:36;;;;;;;0.30;0.20;;;16.80;93.60;;;;;;4888828;29;20194;-62
2024/04/02 08:47:02;;;;;;;0.30;0.30;;;16.80;93.60;;;;;;4900048;29;20194;-61
2024/04/02 08:49:28;;;;;;;0.30;0.30;;;16.90;93.80;;;;;;4900169;29;20777;-62
2024/04/02 08:51:54;;;;;;;0.30;0.30;;;17.50;93.20;;;;;;4900195;29;20747;-61
2024/04/02 08:54:21;;;;;;;0.30;0.30;;;17.60;92.10;;;;;;4900042;29;20391;-61
2024/04/02 08:56:47;;;;;;;0.30;0.30;;;17.50;93.10;;;;;;4896124;29;20486;-62
2024/04/02 08:59:13;;;;;;;0.30;0.30;;;17.10;93.00;;;;;;4881338;29;20469;-62
2024/04/02 09:01:45;;;;;;;0.30;0.30;;;16.80;93.80;;;;;;4881346;29;20395;-62
2024/04/02 09:04:12;;;;;;;0.30;0.30;;;16.50;94.70;;;;;;4880365;29;20387;-61
2024/04/02 09:06:38;;;;;;;0.30;0.30;;;16.50;94.70;;;;;;4880497;29;20459;-64
2024/04/02 09:09:06;;;;;;;0.30;0.30;;;16.40;94.20;;;;;;4881112;29;20490;-61
2024/04/02 09:11:34;;;;;;;0.30;0.30;;;16.40;93.90;;;;;;4883673;29;20171;-61
2024/04/02 09:14:03;;;;;;;0.30;0.30;;;16.20;94.80;;;;;;4899649;29;20398;-61
2024/04/02 09:16:32;;;;;;;0.30;0.30;;;16.50;95.10;;;;;;4899205;29;20432;-61
2024/04/02 09:18:58;;;;;;;0.30;0.20;;;16.60;94.00;;;;;;4899588;29;20418;-62
2024/04/02 09:21:26;;;;;;;0.30;0.30;;;16.60;93.40;;;;;;4899423;29;20455;-61
2024/04/02 09:23:52;;;;;;;0.30;0.30;;;16.80;93.20;;;;;;4899604;29;20473;-61
2024/04/02 09:26:22;;;;;;;0.30;0.30;;;17.40;93.30;;;;;;4895617;29;20998;-60
2024/04/02 09:28:48;;;;;;;0.30;0.30;;;18.00;92.30;;;;;;4880847;29;20235;-61
2024/04/02 09:31:14;;;;;;;0.30;0.30;;;18.20;92.40;;;;;;4880617;29;20379;-61
2024/04/02 09:33:41;;;;;;;0.30;0.30;;;18.00;91.50;;;;;;4889169;29;20867;-64
2024/04/02 09:36:09;;;;;;;0.30;0.20;;;17.60;92.00;;;;;;4898673;29;20779;-61
2024/04/02 09:38:36;;;;;;;0.30;0.30;;;17.30;92.30;;;;;;4897542;29;20456;-60
2024/04/02 09:41:03;;;;;;;0.30;0.30;;;16.80;91.70;;;;;;4899122;29;20386;-61
2024/04/02 09:43:30;;;;;;;0.30;0.30;;;16.40;91.70;;;;;;4897425;29;20786;-61
2024/04/02 09:45:59;;;;;;;0.30;0.30;;;16.00;91.70;;;;;;4898569;29;20445;-61
2024/04/02 09:48:28;;;;;;;0.30;0.30;;;15.60;92.40;;;;;;4886620;29;20409;-61
2024/04/02 09:50:55;;;;;;;0.30;0.30;;;15.70;93.20;;;;;;4879918;29;20416;-62
2024/04/02 09:53:21;;;;;;;0.30;0.30;;;16.60;93.00;;;;;;4879983;29;20395;-62
2024/04/02 09:55:48;;;;;;;0.30;0.30;;;17.30;91.30;;;;;;4879513;29;20465;-62
2024/04/02 09:58:15;;;;;;;0.30;0.30;;;18.00;90.90;;;;;;4879947;29;20964;-65
2024/04/02 10:00:46;;;;;;;0.30;0.30;;;18.60;90.30;;;;;;4879858;29;20885;-65
2024/04/02 10:03:13;;;;;;;0.30;0.30;;;19.40;90.00;;;;;;4892078;29;20409;-66
2024/04/02 10:05:39;;;;;;;0.30;0.30;;;20.00;84.80;;;;;;4896822;29;20412;-62
2024/04/02 10:08:07;;;;;;;0.30;0.30;;;20.60;86.00;;;;;;4898509;29;20509;-62
2024/04/02 10:10:39;;;;;;;0.30;0.30;;;21.30;83.40;;;;;;4898717;29;20242;-60
2024/04/02 10:13:06;;;;;;;0.30;0.20;;;21.40;82.20;;;;;;4898599;29;20411;-62
2024/04/02 10:15:32;;;;;;;0.30;0.20;;;21.50;79.10;;;;;;4896740;29;20427;-62
2024/04/02 10:18:00;;;;;;;0.70;0.70;;;21.90;79.10;;;;;;4885281;29;20960;-62
2024/04/02 10:20:30;;;;;;;0.87;0.33;;;22.00;77.90;;;;;;4898428;29;20518;-62
2024/04/02 10:22:56;;;;;;;0.30;0.30;;;21.60;76.90;;;;;;4898314;29;20485;-60
2024/04/02 10:25:27;;;;;;;0.30;0.30;;;20.90;78.00;;;;;;4897881;29;20414;-62
2024/04/02 10:27:59;;;;;;;0.30;0.30;;;20.60;79.90;;;;;;4896644;29;20428;-61
2024/04/02 10:30:26;;;;;;;0.30;0.30;;;20.20;80.50;;;;;;4879174;29;20425;-61
2024/04/02 10:32:55;;;;;;;0.30;0.30;;;19.70;80.80;;;;;;4879205;29;20397;-61
2024/04/02 10:35:28;;;;;;;0.40;0.40;;;19.10;82.90;;;;;;4879117;29;20416;-61
2024/04/02 10:37:56;;;;;;;0.30;0.20;;;18.50;82.80;;;;;;4879205;29;20460;-61
2024/04/02 10:40:23;;;;;;;0.30;0.30;;;18.20;84.20;;;;;;4879161;29;20396;-61
2024/04/02 10:42:50;;;;;;;0.30;0.30;;;17.90;85.30;;;;;;4884383;29;20448;-61
2024/04/02 10:45:16;;;;;;;0.30;0.30;;;17.60;85.00;;;;;;4897333;29;20391;-61
2024/04/02 10:47:49;;;;;;;0.60;0.60;;;17.30;84.20;;;;;;4897769;29;20708;-61
2024/04/02 10:50:15;;;;;;;0.30;0.30;;;17.10;87.30;;;;;;4897886;29;20393;-60
2024/04/02 10:52:41;;;;;;;0.30;0.30;;;17.40;85.70;;;;;;4897757;29;20417;-61
2024/04/02 10:55:07;;;;;;;0.30;0.30;;;18.00;84.70;;;;;;4897572;29;20481;-62
2024/04/02 10:57:34;;;;;;;0.30;0.30;;;18.40;84.10;;;;;;4892241;29;20546;-62
2024/04/02 11:00:10;;;;;;;0.30;0.30;;;18.50;83.50;;;;;;4879162;29;20390;-62
2024/04/02 11:02:37;;;;;;;0.30;0.30;;;18.50;82.50;;;;;;4879172;29;20419;-62
2024/04/02 11:05:05;;;;;;;0.30;0.20;;;18.30;81.90;;;;;;4878916;29;20762;-62
2024/04/02 11:07:32;;;;;;;0.30;0.30;;;17.90;82.40;;;;;;4878911;29;20428;-62
2024/04/02 11:09:58;;;;;;;0.30;0.30;;;17.70;84.60;;;;;;4879044;29;20414;-63
2024/04/02 11:12:24;;;;;;;0.30;0.30;;;17.90;85.10;;;;;;4887915;29;20431;-62
2024/04/02 11:14:54;;;;;;;0.30;0.20;;;18.00;85.40;;;;;;4897384;29;20401;-63
2024/04/02 11:17:20;;;;;;;0.30;0.30;;;17.80;84.00;;;;;;4897669;29;20294;-63
2024/04/02 11:19:46;;;;;;;0.30;0.30;;;17.60;84.00;;;;;;4897648;29;20423;-62
2024/04/02 11:25:13;;;;;;;0.30;0.30;;;17.30;88.80;;;;;;4880930;29;20742;-62
2024/04/02 11:27:40;;;;;;;0.30;0.30;;;17.30;94.00;;;;;;4881830;29;20558;-62
2024/04/02 11:30:06;;;;;;;0.30;0.30;;;17.30;95.10;;;;;;4882738;29;20402;-61
2024/04/02 11:32:33;;;;;;;0.30;0.30;;;17.20;93.30;;;;;;4882755;29;20607;-62
2024/04/02 11:35:16;;;;;;;0.30;0.30;;;16.90;92.20;;;;;;4882245;29;20981;-62
2024/04/02 11:37:43;;;;;;;0.30;0.30;;;16.50;91.80;;;;;;4886207;29;20974;-62
2024/04/02 11:40:18;;;;;;;0.30;0.30;;;16.20;92.20;;;;;;4901079;29;20419;-61
2024/04/02 11:42:44;;;;;;;0.40;0.40;;;15.80;94.40;;;;;;4900002;29;20381;-66
2024/04/02 11:45:10;;;;;;;0.30;0.30;;;15.60;94.80;;;;;;4901033;29;20386;-62
2024/04/02 11:47:36;;;;;;;0.30;0.30;;;15.40;94.20;;;;;;4900877;29;20448;-64
2024/04/02 11:50:07;;;;;;;0.30;0.30;;;15.40;93.90;;;;;;4900842;29;20762;-66
2024/04/02 11:52:34;;;;;;;0.30;0.30;;;15.50;93.50;;;;;;4895995;29;20416;-65
2024/04/02 11:54:59;;;;;;;0.30;0.30;;;15.70;93.50;;;;;;4881780;29;20390;-62
2024/04/02 12:00:14;;;;;;;0.30;0.30;;;15.90;91.70;;;;;;4882673;29;20197;-61
2024/04/02 12:02:44;;;;;;;0.37;0.37;;;15.90;91.70;;;;;;4882266;29;20402;-60
2024/04/02 12:05:10;;;;;;;0.30;0.30;;;15.90;91.40;;;;;;4881865;29;20391;-61
2024/04/02 12:07:37;;;;;;;0.30;0.30;;;15.80;91.20;;;;;;4892165;29;20799;-61
2024/04/02 12:10:05;;;;;;;0.37;0.37;;;15.70;91.20;;;;;;4900613;29;20471;-61
2024/04/02 12:12:31;;;;;;;0.30;0.30;;;15.70;90.60;;;;;;4900809;29;20831;-60
2024/04/02 12:14:57;;;;;;;0.30;0.30;;;15.70;91.30;;;;;;4900097;29;20486;-62
2024/04/02 12:17:24;;;;;;;0.30;0.30;;;15.80;91.50;;;;;;4900386;29;20453;-60
2024/04/02 12:19:52;;;;;;;0.30;0.30;;;15.90;89.50;;;;;;4900557;29;20469;-60
2024/04/02 12:22:18;;;;;;;0.30;0.30;;;16.00;90.40;;;;;;4890246;29;20463;-61
2024/04/02 12:24:44;;;;;;;0.30;0.30;;;16.20;90.00;;;;;;4881532;29;20415;-60
2024/04/02 12:27:10;;;;;;;0.30;0.30;;;16.30;88.80;;;;;;4881705;29;20526;-60
2024/04/02 12:29:38;;;;;;;0.30;0.30;;;16.40;89.20;;;;;;4881928;29;20566;-61
2024/04/02 12:32:07;;;;;;;0.30;0.20;;;16.40;90.80;;;;;;4881297;29;20176;-59
2024/04/02 12:34:33;;;;;;;0.30;0.30;;;16.40;90.70;;;;;;4881321;29;20907;-58
2024/04/02 12:37:02;;;;;;;0.30;0.30;;;16.50;90.70;;;;;;4893800;29;20448;-60
2024/04/02 12:39:28;;;;;;;0.30;0.30;;;16.50;91.00;;;;;;4899401;29;20575;-60
2024/04/02 12:41:54;;;;;;;0.30;0.30;;;16.40;90.80;;;;;;4900201;29;20415;-60
2024/04/02 12:44:19;;;;;;;0.30;0.20;;;16.30;89.00;;;;;;4900426;29;20479;-60
2024/04/02 12:46:45;;;;;;;0.30;0.30;;;16.10;90.30;;;;;;4899721;29;20285;-61
2024/04/02 12:49:12;;;;;;;0.30;0.30;;;15.90;88.30;;;;;;4900277;29;20514;-60
2024/04/02 12:51:38;;;;;;;0.30;0.30;;;15.80;90.30;;;;;;4887424;29;20211;-60
2024/04/02 12:54:04;;;;;;;0.30;0.30;;;15.60;91.60;;;;;;4881228;29;20407;-60
2024/04/02 12:56:31;;;;;;;0.30;0.20;;;15.50;91.50;;;;;;4880719;29;20203;-60
2024/04/02 12:58:57;;;;;;;0.30;0.30;;;15.20;92.80;;;;;;4881299;29;20384;-61
2024/04/02 13:01:23;;;;;;;0.30;0.30;;;15.10;95.10;;;;;;4897156;29;20404;-62
2024/04/02 13:03:50;;;;;;;0.30;0.30;;;15.10;95.70;;;;;;4916359;29;20393;-61
2024/04/02 13:06:16;;;;;;;0.30;0.30;;;15.20;95.80;;;;;;4899913;29;20480;-60
2024/04/02 13:08:44;;;;;;;0.30;0.30;;;15.30;94.60;;;;;;4898442;29;20423;-59
2024/04/02 13:11:11;;;;;;;0.30;0.30;;;15.30;93.40;;;;;;4899393;29;20450;-60
2024/04/02 13:13:39;;;;;;;0.30;0.30;;;15.20;94.00;;;;;;4899041;29;20423;-59
2024/04/02 13:16:16;;;;;;;0.70;0.67;;;15.20;93.80;;;;;;4898702;29;20442;-60
2024/04/02 13:18:42;;;;;;;0.30;0.30;;;15.30;93.70;;;;;;4899278;29;21030;-59
2024/04/02 13:21:08;;;;;;;0.30;0.30;;;15.20;92.60;;;;;;4886229;29;20421;-60
2024/04/02 13:23:33;;;;;;;0.30;0.20;;;15.20;93.00;;;;;;4899660;29;20565;-60
2024/04/02 13:26:12;;;;;;;0.30;0.30;;;15.20;92.70;;;;;;4898937;29;20283;-59
2024/04/02 13:28:38;;;;;;;0.30;0.30;;;15.20;92.40;;;;;;4899373;29;20189;-60
2024/04/02 13:31:08;;;;;;;0.33;0.33;;;15.20;92.90;;;;;;4899394;29;20405;-59
2024/04/02 13:33:35;;;;;;;0.40;0.40;;;15.30;93.20;;;;;;4899007;29;20980;-60
2024/04/02 13:36:12;;;;;;;0.30;0.30;;;15.40;93.20;;;;;;4880276;29;20428;-59
2024/04/02 13:38:40;;;;;;;0.30;0.30;;;15.50;92.80;;;;;;4881386;29;20445;-60
2024/04/02 13:41:05;;;;;;;0.30;0.30;;;15.60;92.10;;;;;;4880404;29;20392;-60
2024/04/02 13:43:31;;;;;;;0.30;0.30;;;15.60;90.80;;;;;;4880536;29;20756;-60
2024/04/02 13:46:00;;;;;;;0.30;0.30;;;15.60;90.00;;;;;;4880032;29;20521;-60
2024/04/02 13:48:29;;;;;;;0.30;0.30;;;15.50;90.50;;;;;;4880190;29;20204;-60
2024/04/02 13:51:05;;;;;;;0.30;0.20;;;15.50;90.50;;;;;;4898613;29;20436;-59
2024/04/02 13:53:32;;;;;;;0.30;0.30;;;15.50;90.60;;;;;;4898515;29;20867;-60
2024/04/02 13:55:58;;;;;;;0.30;0.30;;;15.60;90.90;;;;;;4897888;29;20444;-61
2024/04/02 13:58:25;;;;;;;0.30;0.30;;;15.60;90.50;;;;;;4898292;29;20440;-60
2024/04/02 14:00:51;;;;;;;0.30;0.30;;;15.70;91.40;;;;;;4898323;29;20434;-61
2024/04/02 14:03:16;;;;;;;0.30;0.30;;;15.70;90.60;;;;;;4893350;29;20559;-61
2024/04/02 14:05:42;;;;;;;0.30;0.30;;;15.60;91.00;;;;;;4879170;29;20890;-61
2024/04/02 14:08:08;;;;;;;0.30;0.30;;;15.50;91.80;;;;;;4879430;29;20211;-59
2024/04/02 14:10:37;;;;;;;0.30;0.30;;;15.50;91.70;;;;;;4879663;29;20191;-66
2024/04/02 14:13:07;;;;;;;0.30;0.30;;;15.50;91.60;;;;;;4879762;29;20586;-60
2024/04/02 14:15:36;;;;;;;0.30;0.30;;;15.60;91.70;;;;;;4879144;29;20445;-58
2024/04/02 14:18:02;;;;;;;0.30;0.30;;;15.60;91.30;;;;;;4884296;29;20462;-61
2024/04/02 14:20:28;;;;;;;0.30;0.30;;;15.50;91.50;;;;;;4898212;29;20821;-60
2024/04/02 14:22:53;;;;;;;0.30;0.30;;;15.50;91.20;;;;;;4898034;29;20418;-60
2024/04/02 14:25:20;;;;;;;0.30;0.30;;;15.40;92.00;;;;;;4897344;29;20598;-61
2024/04/02 14:27:46;;;;;;;0.30;0.30;;;15.40;91.60;;;;;;4897983;29;20710;-61
2024/04/02 14:30:12;;;;;;;0.30;0.30;;;15.30;92.30;;;;;;4897875;29;20414;-60
2024/04/02 14:32:38;;;;;;;0.30;0.30;;;15.20;93.20;;;;;;4890982;29;20186;-60
2024/04/02 14:35:04;;;;;;;0.30;0.30;;;15.10;94.90;;;;;;4878771;29;20448;-60
2024/04/02 14:37:30;;;;;;;0.30;0.30;;;15.10;96.60;;;;;;4879045;29;20285;-59
2024/04/02 14:39:56;;;;;;;0.30;0.30;;;15.10;96.70;;;;;;4879164;29;20415;-60
2024/04/02 14:42:21;;;;;;;0.30;0.30;;;15.20;95.30;;;;;;4879314;29;20442;-61
2024/04/02 14:44:53;;;;;;;0.30;0.20;;;15.20;94.10;;;;;;4879238;29;20545;-59
2024/04/02 14:47:19;;;;;;;0.30;0.30;;;15.10;93.30;;;;;;4887478;29;20614;-59
2024/04/02 14:49:51;;;;;;;0.30;0.30;;;15.10;93.30;;;;;;4897794;29;20490;-60
2024/04/02 14:52:17;;;;;;;0.30;0.30;;;15.10;92.90;;;;;;4898184;29;20389;-60
2024/04/02 14:54:42;;;;;;;0.30;0.30;;;15.10;93.30;;;;;;4897739;29;20756;-59
2024/04/02 14:57:09;;;;;;;0.30;0.30;;;15.00;93.30;;;;;;4896343;29;20216;-60
2024/04/02 14:59:38;;;;;;;0.30;0.30;;;15.10;92.80;;;;;;4898005;29;20184;-60
2024/04/02 15:02:04;;;;;;;0.30;0.30;;;15.10;92.10;;;;;;4885495;29;20403;-60
2024/04/02 15:04:29;;;;;;;0.30;0.30;;;15.20;92.30;;;;;;4879123;29;20424;-61
2024/04/02 15:06:55;;;;;;;0.30;0.30;;;15.20;92.30;;;;;;4878938;29;20726;-60
2024/04/02 15:09:21;;;;;;;0.30;0.30;;;15.10;91.90;;;;;;4879339;29;20190;-60
2024/04/02 15:11:46;;;;;;;0.30;0.30;;;14.90;92.40;;;;;;4879226;29;20173;-60
2024/04/02 15:14:12;;;;;;;0.30;0.30;;;14.70;92.30;;;;;;4879078;29;20937;-61
2024/04/02 15:16:38;;;;;;;0.30;0.30;;;14.60;92.80;;;;;;4888810;29;20212;-60
2024/04/02 15:19:03;;;;;;;0.30;0.30;;;14.40;93.00;;;;;;4898051;29;20681;-58
2024/04/02 15:21:29;;;;;;;0.30;0.30;;;14.30;92.90;;;;;;4896528;29;20275;-60
2024/04/02 15:23:55;;;;;;;0.83;0.50;;;14.30;93.60;;;;;;4897834;29;20179;-60
2024/04/02 15:26:20;;;;;;;0.30;0.30;;;14.30;93.80;;;;;;4897206;29;20961;-59
2024/04/02 15:28:46;;;;;;;0.30;0.20;;;14.30;93.90;;;;;;4895324;29;20180;-59
2024/04/02 15:31:12;;;;;;;0.40;0.40;;;14.30;93.30;;;;;;4896823;29;20193;-59
2024/04/02 15:33:37;;;;;;;0.30;0.30;;;14.30;93.00;;;;;;4897613;29;20187;-60
2024/04/02 15:36:07;;;;;;;0.30;0.30;;;14.20;93.60;;;;;;4897088;29;20199;-59
2024/04/02 15:38:34;;;;;;;0.30;0.30;;;14.10;93.60;;;;;;4897485;29;20202;-59
2024/04/02 15:41:00;;;;;;;0.30;0.30;;;14.00;93.30;;;;;;4897615;29;20499;-60
2024/04/02 15:43:26;;;;;;;0.30;0.30;;;13.90;93.30;;;;;;4890228;29;20428;-59
2024/04/02 15:46:02;;;;;;;0.30;0.30;;;13.70;93.90;;;;;;4878543;29;20203;-59
2024/04/02 15:48:27;;;;;;;0.30;0.30;;;13.50;94.10;;;;;;4878990;29;20187;-59
2024/04/02 15:50:54;;;;;;;0.30;0.30;;;13.40;94.70;;;;;;4879066;29;20485;-59
2024/04/02 15:53:20;;;;;;;0.30;0.30;;;13.50;95.00;;;;;;4878871;29;20179;-59
2024/04/02 15:55:45;;;;;;;0.30;0.30;;;13.40;94.70;;;;;;4878551;29;20430;-60
2024/04/02 15:58:13;;;;;;;0.30;0.30;;;13.40;94.70;;;;;;4885906;29;20217;-60
2024/04/02 16:00:38;;;;;;;0.30;0.30;;;13.40;95.20;;;;;;4896278;29;20549;-59
2024/04/02 16:03:04;;;;;;;0.40;0.40;;;13.50;95.40;;;;;;4897393;29;20418;-59
2024/04/02 16:05:30;;;;;;;0.60;0.60;;;13.50;95.70;;;;;;4896993;29;20534;-58
2024/04/02 16:07:55;;;;;;;0.30;0.30;;;13.50;95.60;;;;;;4897187;29;20684;-60
2024/04/02 16:10:21;;;;;;;0.30;0.30;;;13.50;95.40;;;;;;4897151;29;20205;-60
2024/04/02 16:12:46;;;;;;;0.30;0.30;;;13.60;95.50;;;;;;4889298;29;20180;-59
2024/04/02 16:15:12;;;;;;;0.30;0.30;;;13.50;95.40;;;;;;4881744;29;20195;-59
2024/04/02 16:17:38;;;;;;;0.30;0.30;;;13.50;95.50;;;;;;4882035;29;20471;-59
2024/04/02 16:20:04;;;;;;;0.30;0.30;;;13.50;95.10;;;;;;4881787;29;20668;-59
2024/04/02 16:22:29;;;;;;;0.30;0.30;;;13.50;94.80;;;;;;4881897;29;20195;-62
2024/04/02 16:24:56;;;;;;;0.30;0.30;;;13.50;94.50;;;;;;4881869;29;20425;-59
2024/04/02 16:27:21;;;;;;;0.50;0.50;;;13.50;94.50;;;;;;4889907;29;20234;-59
2024/04/02 16:29:48;;;;;;;0.30;0.30;;;13.50;94.60;;;;;;4900754;29;20407;-60
2024/04/02 16:32:13;;;;;;;0.30;0.30;;;13.50;94.50;;;;;;4900824;29;20220;-60
2024/04/02 16:34:39;;;;;;;0.30;0.30;;;13.50;94.30;;;;;;4900135;29;20421;-59
2024/04/02 16:37:04;;;;;;;0.30;0.30;;;13.60;94.10;;;;;;4900293;29;20198;-60
2024/04/02 16:39:30;;;;;;;0.30;0.30;;;13.60;94.00;;;;;;4900692;29;20649;-60
2024/04/02 16:41:56;;;;;;;0.30;0.30;;;13.70;93.90;;;;;;4889801;29;20262;-61
2024/04/02 16:44:22;;;;;;;0.30;0.30;;;13.70;94.20;;;;;;4884465;29;20485;-61
2024/04/02 16:46:47;;;;;;;0.30;0.30;;;13.70;94.60;;;;;;4899251;29;20445;-60
2024/04/02 16:49:13;;;;;;;0.30;0.30;;;13.70;94.60;;;;;;4900323;29;20210;-61
2024/04/02 16:51:38;;;;;;;0.30;0.30;;;13.70;94.40;;;;;;4900053;29;20529;-62
2024/04/02 16:54:04;;;;;;;0.30;0.30;;;13.80;94.20;;;;;;4900028;29;20318;-60
2024/04/02 16:56:30;;;;;;;0.30;0.30;;;13.70;94.20;;;;;;4899402;29;20203;-60
2024/04/02 16:58:56;;;;;;;0.30;0.30;;;13.70;93.90;;;;;;4899379;29;20807;-60
2024/04/02 17:01:22;;;;;;;0.30;0.30;;;13.70;93.60;;;;;;4899980;29;20205;-59
2024/04/02 17:03:48;;;;;;;0.30;0.30;;;13.70;93.50;;;;;;4899967;29;20187;-59
2024/04/02 17:06:13;;;;;;;0.40;0.40;;;13.60;93.60;;;;;;4899237;29;20438;-60
2024/04/02 17:08:40;;;;;;;0.30;0.30;;;13.50;93.70;;;;;;4899819;29;20223;-61
2024/04/02 17:11:12;;;;;;;0.30;0.30;;;13.50;93.70;;;;;;4897216;29;20274;-60
2024/04/02 17:16:42;;;;;;;0.30;0.30;;;13.40;93.90;;;;;;4859664;29;20441;-61
2024/04/02 17:19:08;;;;;;;0.30;0.30;;;13.40;94.00;;;;;;4858744;29;20477;-61
2024/04/02 17:21:33;;;;;;;0.30;0.30;;;13.40;94.20;;;;;;4844267;29;20263;-60
2024/04/02 17:23:59;;;;;;;0.30;0.30;;;13.40;94.10;;;;;;4843888;29;20184;-60
2024/04/02 17:26:27;;;;;;;0.30;0.30;;;13.40;94.10;;;;;;4857255;29;20283;-60
2024/04/02 17:28:52;;;;;;;0.30;0.30;;;13.40;94.20;;;;;;4857799;29;20211;-60
2024/04/02 17:31:18;;;;;;;0.30;0.30;;;13.40;94.20;;;;;;4850300;29;20396;-60
2024/04/02 17:33:44;;;;;;;0.30;0.30;;;13.30;93.70;;;;;;4849592;29;20229;-61
2024/04/02 17:36:09;;;;;;;0.40;0.40;;;13.30;93.80;;;;;;4859689;29;20268;-61
2024/04/02 17:38:36;;;;;;;0.30;0.30;;;13.30;93.70;;;;;;4859070;29;20286;-60
2024/04/02 17:41:03;;;;;;;0.30;0.20;;;13.20;92.80;;;;;;4859852;29;20237;-61
2024/04/02 17:43:29;;;;;;;0.30;0.30;;;13.20;92.30;;;;;;4858500;29;20428;-62
2024/04/02 17:46:02;;;;;;;0.30;0.30;;;13.20;92.40;;;;;;4858077;29;20457;-61
2024/04/02 17:48:30;;;;;;;0.30;0.30;;;13.20;92.80;;;;;;4896087;29;20446;-61
2024/04/02 17:51:03;;;;;;;0.30;0.30;;;13.20;93.20;;;;;;4898777;29;20471;-61
2024/04/02 17:53:29;;;;;;;1.60;0.60;;;13.20;93.10;;;;;;4898548;29;20422;-63
2024/04/02 17:56:02;;;;;;;0.60;0.60;;;13.10;92.80;;;;;;4895031;29;20457;-63
2024/04/02 17:58:28;;;;;;;0.30;0.30;;;13.10;92.90;;;;;;4897794;29;20542;-61